sensor_id;sensor_type;location;lat;lon;timestamp;P1;durP1;ratioP1;P2;durP2;ratioP2
46036;SDS011;31769;49.304;8.428;2023-03-14T00:01:00;1.00;;;0.40;;
46036;SDS011;31769;49.304;8.428;2023-03-14T00:04:07;0.73;;;0.40;;
46036;SDS011;31769;49.304;8.428;2023-03-14T00:07:09;0.98;;;0.47;;
46036;SDS011;31769;49.304;8.428;2023-03-14T00:10:12;0.50;;;0.32;;
46036;SDS011;31769;49.304;8.428;2023-03-14T00:13:14;0.40;;;0.30;;
46036;SDS011;31769;49.304;8.428;2023-03-14T00:16:15;1.65;;;0.50;;
46036;SDS011;31769;49.304;8.428;2023-03-14T00:19:17;0.60;;;0.30;;
46036;SDS011;31769;49.304;8.428;2023-03-14T00:22:17;0.50;;;0.40;;
46036;SDS011;31769;49.304;8.428;2023-03-14T00:25:18;1.20;;;0.40;;
46036;SDS011;31769;49.304;8.428;2023-03-14T00:28:19;2.47;;;0.30;;
46036;SDS011;31769;49.304;8.428;2023-03-14T00:31:21;1.55;;;0.50;;
46036;SDS011;31769;49.304;8.428;2023-03-14T00:34:22;0.35;;;0.35;;
46036;SDS011;31769;49.304;8.428;2023-03-14T00:37:23;1.25;;;0.50;;
46036;SDS011;31769;49.304;8.428;2023-03-14T00:40:24;0.88;;;0.40;;
46036;SDS011;31769;49.304;8.428;2023-03-14T00:43:24;1.40;;;0.60;;
46036;SDS011;31769;49.304;8.428;2023-03-14T00:46:25;0.40;;;0.40;;
46036;SDS011;31769;49.304;8.428;2023-03-14T00:49:26;1.33;;;0.60;;
46036;SDS011;31769;49.304;8.428;2023-03-14T00:52:26;1.17;;;0.60;;
46036;SDS011;31769;49.304;8.428;2023-03-14T00:55:27;1.83;;;0.70;;
46036;SDS011;31769;49.304;8.428;2023-03-14T00:58:28;0.88;;;0.40;;
46036;SDS011;31769;49.304;8.428;2023-03-14T01:01:28;0.80;;;0.30;;
46036;SDS011;31769;49.304;8.428;2023-03-14T01:04:29;0.90;;;0.50;;
46036;SDS011;31769;49.304;8.428;2023-03-14T01:07:31;0.57;;;0.50;;
46036;SDS011;31769;49.304;8.428;2023-03-14T01:10:32;0.77;;;0.30;;
46036;SDS011;31769;49.304;8.428;2023-03-14T01:13:33;1.40;;;0.43;;
46036;SDS011;31769;49.304;8.428;2023-03-14T01:16:36;1.17;;;0.40;;
46036;SDS011;31769;49.304;8.428;2023-03-14T01:19:36;1.25;;;0.60;;
46036;SDS011;31769;49.304;8.428;2023-03-14T01:26:59;2.53;;;0.60;;
46036;SDS011;31769;49.304;8.428;2023-03-14T01:30:02;1.48;;;0.65;;
46036;SDS011;31769;49.304;8.428;2023-03-14T01:33:05;2.53;;;0.60;;
46036;SDS011;31769;49.304;8.428;2023-03-14T01:36:06;0.93;;;0.52;;
46036;SDS011;31769;49.304;8.428;2023-03-14T01:39:08;4.30;;;0.93;;
46036;SDS011;31769;49.304;8.428;2023-03-14T01:42:09;1.20;;;0.57;;
46036;SDS011;31769;49.304;8.428;2023-03-14T01:52:09;6.32;;;0.88;;
46036;SDS011;31769;49.304;8.428;2023-03-14T01:55:15;3.80;;;0.90;;
46036;SDS011;31769;49.304;8.428;2023-03-14T01:58:21;2.45;;;0.80;;
46036;SDS011;31769;49.304;8.428;2023-03-14T02:01:23;3.95;;;0.93;;
46036;SDS011;31769;49.304;8.428;2023-03-14T02:04:27;4.10;;;0.65;;
46036;SDS011;31769;49.304;8.428;2023-03-14T02:10:52;3.53;;;1.20;;
46036;SDS011;31769;49.304;8.428;2023-03-14T02:13:59;3.38;;;1.15;;
46036;SDS011;31769;49.304;8.428;2023-03-14T02:17:10;5.63;;;1.55;;
46036;SDS011;31769;49.304;8.428;2023-03-14T02:23:40;2.35;;;0.90;;
46036;SDS011;31769;49.304;8.428;2023-03-14T02:27:17;3.10;;;1.27;;
46036;SDS011;31769;49.304;8.428;2023-03-14T02:33:23;5.00;;;1.30;;
46036;SDS011;31769;49.304;8.428;2023-03-14T02:36:24;3.33;;;1.20;;
46036;SDS011;31769;49.304;8.428;2023-03-14T02:39:31;3.00;;;1.15;;
46036;SDS011;31769;49.304;8.428;2023-03-14T02:42:42;3.65;;;0.98;;
46036;SDS011;31769;49.304;8.428;2023-03-14T02:45:43;3.10;;;1.20;;
46036;SDS011;31769;49.304;8.428;2023-03-14T02:48:50;3.25;;;1.00;;
46036;SDS011;31769;49.304;8.428;2023-03-14T02:51:55;3.15;;;0.80;;
46036;SDS011;31769;49.304;8.428;2023-03-14T02:54:56;2.33;;;1.13;;
46036;SDS011;31769;49.304;8.428;2023-03-14T02:57:58;3.80;;;1.13;;
46036;SDS011;31769;49.304;8.428;2023-03-14T03:00:59;3.67;;;0.93;;
46036;SDS011;31769;49.304;8.428;2023-03-14T03:04:01;2.78;;;0.90;;
46036;SDS011;31769;49.304;8.428;2023-03-14T03:07:02;1.48;;;0.70;;
46036;SDS011;31769;49.304;8.428;2023-03-14T03:10:03;1.38;;;0.70;;
46036;SDS011;31769;49.304;8.428;2023-03-14T03:13:04;2.17;;;0.60;;
46036;SDS011;31769;49.304;8.428;2023-03-14T03:16:05;1.45;;;0.40;;
46036;SDS011;31769;49.304;8.428;2023-03-14T03:19:08;3.83;;;0.80;;
46036;SDS011;31769;49.304;8.428;2023-03-14T03:22:09;3.45;;;0.77;;
46036;SDS011;31769;49.304;8.428;2023-03-14T03:25:09;2.42;;;0.73;;
46036;SDS011;31769;49.304;8.428;2023-03-14T03:28:10;4.28;;;0.75;;
46036;SDS011;31769;49.304;8.428;2023-03-14T03:31:13;3.42;;;0.90;;
46036;SDS011;31769;49.304;8.428;2023-03-14T03:34:14;5.35;;;1.00;;
46036;SDS011;31769;49.304;8.428;2023-03-14T03:37:16;1.85;;;0.63;;
46036;SDS011;31769;49.304;8.428;2023-03-14T03:40:17;3.15;;;0.75;;
46036;SDS011;31769;49.304;8.428;2023-03-14T03:43:18;2.47;;;0.70;;
46036;SDS011;31769;49.304;8.428;2023-03-14T03:46:21;3.10;;;0.70;;
46036;SDS011;31769;49.304;8.428;2023-03-14T03:49:22;3.55;;;0.70;;
46036;SDS011;31769;49.304;8.428;2023-03-14T03:52:23;5.50;;;0.90;;
46036;SDS011;31769;49.304;8.428;2023-03-14T03:55:23;3.38;;;0.55;;
46036;SDS011;31769;49.304;8.428;2023-03-14T03:58:26;2.75;;;0.57;;
46036;SDS011;31769;49.304;8.428;2023-03-14T04:01:26;2.97;;;0.60;;
46036;SDS011;31769;49.304;8.428;2023-03-14T04:04:30;3.90;;;0.65;;
46036;SDS011;31769;49.304;8.428;2023-03-14T04:07:32;3.22;;;0.70;;
46036;SDS011;31769;49.304;8.428;2023-03-14T04:10:35;3.55;;;0.65;;
46036;SDS011;31769;49.304;8.428;2023-03-14T04:13:44;2.22;;;0.57;;
46036;SDS011;31769;49.304;8.428;2023-03-14T04:16:45;3.83;;;0.50;;
46036;SDS011;31769;49.304;8.428;2023-03-14T04:19:49;6.70;;;0.65;;
46036;SDS011;31769;49.304;8.428;2023-03-14T04:22:52;3.47;;;0.63;;
46036;SDS011;31769;49.304;8.428;2023-03-14T04:25:53;2.75;;;0.70;;
46036;SDS011;31769;49.304;8.428;2023-03-14T04:29:06;4.13;;;0.95;;
46036;SDS011;31769;49.304;8.428;2023-03-14T04:32:07;3.58;;;0.57;;
46036;SDS011;31769;49.304;8.428;2023-03-14T04:35:11;3.85;;;0.68;;
46036;SDS011;31769;49.304;8.428;2023-03-14T04:38:11;3.50;;;0.52;;
46036;SDS011;31769;49.304;8.428;2023-03-14T04:41:14;2.90;;;0.60;;
46036;SDS011;31769;49.304;8.428;2023-03-14T04:44:15;2.28;;;0.57;;
46036;SDS011;31769;49.304;8.428;2023-03-14T04:47:16;3.10;;;0.60;;
46036;SDS011;31769;49.304;8.428;2023-03-14T04:50:19;3.65;;;0.63;;
46036;SDS011;31769;49.304;8.428;2023-03-14T04:53:21;3.05;;;0.70;;
46036;SDS011;31769;49.304;8.428;2023-03-14T04:56:24;4.65;;;0.45;;
46036;SDS011;31769;49.304;8.428;2023-03-14T04:59:26;3.92;;;0.93;;
46036;SDS011;31769;49.304;8.428;2023-03-14T05:02:30;3.58;;;0.73;;
46036;SDS011;31769;49.304;8.428;2023-03-14T05:05:41;3.17;;;0.70;;
46036;SDS011;31769;49.304;8.428;2023-03-14T05:08:52;2.42;;;0.45;;
46036;SDS011;31769;49.304;8.428;2023-03-14T05:12:14;4.97;;;0.82;;
46036;SDS011;31769;49.304;8.428;2023-03-14T05:15:31;2.10;;;0.60;;
46036;SDS011;31769;49.304;8.428;2023-03-14T05:18:56;7.07;;;0.60;;
46036;SDS011;31769;49.304;8.428;2023-03-14T05:22:16;4.43;;;0.65;;
46036;SDS011;31769;49.304;8.428;2023-03-14T05:25:42;6.82;;;0.70;;
46036;SDS011;31769;49.304;8.428;2023-03-14T05:29:04;2.42;;;0.43;;
46036;SDS011;31769;49.304;8.428;2023-03-14T05:32:31;3.80;;;0.60;;
46036;SDS011;31769;49.304;8.428;2023-03-14T05:35:41;2.83;;;0.80;;
46036;SDS011;31769;49.304;8.428;2023-03-14T05:38:49;3.47;;;0.60;;
46036;SDS011;31769;49.304;8.428;2023-03-14T05:42:25;4.13;;;0.82;;
46036;SDS011;31769;49.304;8.428;2023-03-14T05:45:33;4.13;;;0.60;;
46036;SDS011;31769;49.304;8.428;2023-03-14T05:48:46;2.47;;;0.22;;
46036;SDS011;31769;49.304;8.428;2023-03-14T05:52:07;4.32;;;0.65;;
46036;SDS011;31769;49.304;8.428;2023-03-14T05:55:20;5.95;;;0.80;;
46036;SDS011;31769;49.304;8.428;2023-03-14T05:58:39;3.28;;;0.50;;
46036;SDS011;31769;49.304;8.428;2023-03-14T06:01:59;4.72;;;0.80;;
46036;SDS011;31769;49.304;8.428;2023-03-14T06:05:03;3.63;;;0.70;;
46036;SDS011;31769;49.304;8.428;2023-03-14T06:08:05;5.32;;;0.50;;
46036;SDS011;31769;49.304;8.428;2023-03-14T06:11:06;5.15;;;0.50;;
46036;SDS011;31769;49.304;8.428;2023-03-14T06:14:07;5.93;;;0.60;;
46036;SDS011;31769;49.304;8.428;2023-03-14T06:17:08;3.40;;;0.73;;
46036;SDS011;31769;49.304;8.428;2023-03-14T06:20:16;2.92;;;0.43;;
46036;SDS011;31769;49.304;8.428;2023-03-14T06:23:17;3.75;;;0.75;;
46036;SDS011;31769;49.304;8.428;2023-03-14T06:26:18;3.15;;;0.57;;
46036;SDS011;31769;49.304;8.428;2023-03-14T06:29:18;3.65;;;0.90;;
46036;SDS011;31769;49.304;8.428;2023-03-14T09:29:15;0.88;;;0.20;;
46036;SDS011;31769;49.304;8.428;2023-03-14T09:32:16;3.60;;;2.17;;
46036;SDS011;31769;49.304;8.428;2023-03-14T09:35:17;4.68;;;4.22;;
46036;SDS011;31769;49.304;8.428;2023-03-14T09:38:17;1.27;;;0.50;;
46036;SDS011;31769;49.304;8.428;2023-03-14T09:41:21;0.25;;;0.17;;
46036;SDS011;31769;49.304;8.428;2023-03-14T09:44:27;0.65;;;0.20;;
46036;SDS011;31769;49.304;8.428;2023-03-14T09:47:30;4.10;;;0.30;;
46036;SDS011;31769;49.304;8.428;2023-03-14T09:50:36;0.88;;;0.22;;
46036;SDS011;31769;49.304;8.428;2023-03-14T09:53:42;0.88;;;0.30;;
46036;SDS011;31769;49.304;8.428;2023-03-14T09:56:45;1.75;;;0.30;;
46036;SDS011;31769;49.304;8.428;2023-03-14T09:59:46;1.33;;;0.30;;
46036;SDS011;31769;49.304;8.428;2023-03-14T10:03:34;1.23;;;0.20;;
46036;SDS011;31769;49.304;8.428;2023-03-14T10:06:13;0.75;;;0.40;;
46036;SDS011;31769;49.304;8.428;2023-03-14T10:09:17;0.38;;;0.17;;
46036;SDS011;31769;49.304;8.428;2023-03-14T10:12:35;0.50;;;0.10;;
46036;SDS011;31769;49.304;8.428;2023-03-14T10:15:39;0.22;;;0.17;;
46036;SDS011;31769;49.304;8.428;2023-03-14T10:18:41;1.25;;;0.20;;
46036;SDS011;31769;49.304;8.428;2023-03-14T10:21:54;2.10;;;0.38;;
46036;SDS011;31769;49.304;8.428;2023-03-14T10:24:57;0.32;;;0.15;;
46036;SDS011;31769;49.304;8.428;2023-03-14T10:28:03;0.90;;;0.32;;
46036;SDS011;31769;49.304;8.428;2023-03-14T10:31:05;0.82;;;0.20;;
46036;SDS011;31769;49.304;8.428;2023-03-14T10:34:09;0.50;;;0.20;;
46036;SDS011;31769;49.304;8.428;2023-03-14T10:37:18;0.40;;;0.13;;
46036;SDS011;31769;49.304;8.428;2023-03-14T10:40:24;0.65;;;0.20;;
46036;SDS011;31769;49.304;8.428;2023-03-14T10:43:38;1.55;;;0.10;;
46036;SDS011;31769;49.304;8.428;2023-03-14T10:46:40;2.05;;;0.17;;
46036;SDS011;31769;49.304;8.428;2023-03-14T10:50:21;1.27;;;0.15;;
46036;SDS011;31769;49.304;8.428;2023-03-14T10:53:25;2.58;;;0.40;;
46036;SDS011;31769;49.304;8.428;2023-03-14T10:56:27;2.60;;;0.10;;
46036;SDS011;31769;49.304;8.428;2023-03-14T10:59:37;1.02;;;0.20;;
46036;SDS011;31769;49.304;8.428;2023-03-14T11:06:09;0.20;;;0.20;;
46036;SDS011;31769;49.304;8.428;2023-03-14T11:09:20;1.65;;;0.20;;
46036;SDS011;31769;49.304;8.428;2023-03-14T11:13:12;1.60;;;0.30;;
46036;SDS011;31769;49.304;8.428;2023-03-14T11:25:38;2.15;;;0.20;;
46036;SDS011;31769;49.304;8.428;2023-03-14T11:32:35;0.65;;;0.30;;
46036;SDS011;31769;49.304;8.428;2023-03-14T11:35:42;0.50;;;0.30;;
46036;SDS011;31769;49.304;8.428;2023-03-14T11:38:52;0.63;;;0.40;;
46036;SDS011;31769;49.304;8.428;2023-03-14T11:41:58;0.68;;;0.20;;
46036;SDS011;31769;49.304;8.428;2023-03-14T11:45:02;0.80;;;0.22;;
46036;SDS011;31769;49.304;8.428;2023-03-14T11:48:07;0.63;;;0.10;;
46036;SDS011;31769;49.304;8.428;2023-03-14T11:51:22;0.77;;;0.20;;
46036;SDS011;31769;49.304;8.428;2023-03-14T11:54:37;0.32;;;0.13;;
46036;SDS011;31769;49.304;8.428;2023-03-14T11:57:42;0.38;;;0.20;;
46036;SDS011;31769;49.304;8.428;2023-03-14T12:00:46;0.10;;;0.10;;
46036;SDS011;31769;49.304;8.428;2023-03-14T12:03:57;1.20;;;0.20;;
46036;SDS011;31769;49.304;8.428;2023-03-14T12:07:03;0.20;;;0.10;;
46036;SDS011;31769;49.304;8.428;2023-03-14T12:10:26;3.40;;;0.17;;
46036;SDS011;31769;49.304;8.428;2023-03-14T12:13:29;0.20;;;0.20;;
46036;SDS011;31769;49.304;8.428;2023-03-14T12:16:38;0.75;;;0.15;;
46036;SDS011;31769;49.304;8.428;2023-03-14T12:19:39;0.40;;;0.20;;
46036;SDS011;31769;49.304;8.428;2023-03-14T12:23:02;0.10;;;0.10;;
46036;SDS011;31769;49.304;8.428;2023-03-14T12:26:20;2.00;;;0.15;;
46036;SDS011;31769;49.304;8.428;2023-03-14T12:29:22;1.13;;;0.40;;
46036;SDS011;31769;49.304;8.428;2023-03-14T12:32:24;2.58;;;0.40;;
46036;SDS011;31769;49.304;8.428;2023-03-14T12:35:35;0.93;;;0.40;;
46036;SDS011;31769;49.304;8.428;2023-03-14T12:41:38;1.30;;;0.50;;
46036;SDS011;31769;49.304;8.428;2023-03-14T12:44:45;0.90;;;0.60;;
46036;SDS011;31769;49.304;8.428;2023-03-14T12:47:51;0.93;;;0.73;;
46036;SDS011;31769;49.304;8.428;2023-03-14T13:00:42;1.33;;;0.90;;
46036;SDS011;31769;49.304;8.428;2023-03-14T13:03:47;1.35;;;0.80;;
46036;SDS011;31769;49.304;8.428;2023-03-14T13:06:56;1.23;;;0.75;;
46036;SDS011;31769;49.304;8.428;2023-03-14T13:13:14;0.85;;;0.50;;
46036;SDS011;31769;49.304;8.428;2023-03-14T13:16:23;3.45;;;0.47;;
46036;SDS011;31769;49.304;8.428;2023-03-14T13:19:26;1.63;;;0.57;;
46036;SDS011;31769;49.304;8.428;2023-03-14T13:22:30;1.45;;;0.60;;
46036;SDS011;31769;49.304;8.428;2023-03-14T13:25:34;1.55;;;0.50;;
46036;SDS011;31769;49.304;8.428;2023-03-14T13:28:35;1.48;;;0.70;;
46036;SDS011;31769;49.304;8.428;2023-03-14T13:31:36;1.75;;;0.60;;
46036;SDS011;31769;49.304;8.428;2023-03-14T13:34:37;1.98;;;0.73;;
46036;SDS011;31769;49.304;8.428;2023-03-14T13:37:38;1.42;;;0.65;;
46036;SDS011;31769;49.304;8.428;2023-03-14T13:40:39;1.80;;;0.60;;
46036;SDS011;31769;49.304;8.428;2023-03-14T13:43:44;4.63;;;0.70;;
46036;SDS011;31769;49.304;8.428;2023-03-14T13:46:45;1.98;;;0.60;;
46036;SDS011;31769;49.304;8.428;2023-03-14T13:49:46;1.88;;;0.50;;
46036;SDS011;31769;49.304;8.428;2023-03-14T13:52:54;2.30;;;0.60;;
46036;SDS011;31769;49.304;8.428;2023-03-14T13:55:57;1.92;;;0.60;;
46036;SDS011;31769;49.304;8.428;2023-03-14T13:59:02;2.72;;;0.55;;
46036;SDS011;31769;49.304;8.428;2023-03-14T14:02:12;1.75;;;0.63;;
46036;SDS011;31769;49.304;8.428;2023-03-14T14:05:14;1.80;;;0.70;;
46036;SDS011;31769;49.304;8.428;2023-03-14T14:08:15;3.08;;;0.50;;
46036;SDS011;31769;49.304;8.428;2023-03-14T14:11:59;1.13;;;0.50;;
46036;SDS011;31769;49.304;8.428;2023-03-14T14:18:03;2.45;;;0.47;;
46036;SDS011;31769;49.304;8.428;2023-03-14T14:21:06;3.42;;;0.70;;
46036;SDS011;31769;49.304;8.428;2023-03-14T14:24:08;3.60;;;0.70;;
46036;SDS011;31769;49.304;8.428;2023-03-14T14:27:14;4.60;;;0.57;;
46036;SDS011;31769;49.304;8.428;2023-03-14T14:33:19;2.47;;;0.63;;
46036;SDS011;31769;49.304;8.428;2023-03-14T14:36:37;3.65;;;0.30;;
46036;SDS011;31769;49.304;8.428;2023-03-14T14:44:03;3.08;;;0.30;;
46036;SDS011;31769;49.304;8.428;2023-03-14T14:47:04;1.75;;;0.28;;
46036;SDS011;31769;49.304;8.428;2023-03-14T14:50:20;1.25;;;0.22;;
46036;SDS011;31769;49.304;8.428;2023-03-14T14:53:41;0.95;;;0.20;;
46036;SDS011;31769;49.304;8.428;2023-03-14T14:56:50;1.15;;;0.20;;
46036;SDS011;31769;49.304;8.428;2023-03-14T14:59:54;3.00;;;0.40;;
46036;SDS011;31769;49.304;8.428;2023-03-14T15:02:58;2.28;;;0.40;;
46036;SDS011;31769;49.304;8.428;2023-03-14T15:06:00;2.00;;;0.40;;
46036;SDS011;31769;49.304;8.428;2023-03-14T15:09:02;2.92;;;0.30;;
46036;SDS011;31769;49.304;8.428;2023-03-14T15:12:02;1.85;;;0.63;;
46036;SDS011;31769;49.304;8.428;2023-03-14T15:15:03;1.85;;;0.43;;
46036;SDS011;31769;49.304;8.428;2023-03-14T15:18:16;1.35;;;0.30;;
46036;SDS011;31769;49.304;8.428;2023-03-14T15:21:18;1.88;;;0.32;;
46036;SDS011;31769;49.304;8.428;2023-03-14T15:24:18;1.27;;;0.40;;
46036;SDS011;31769;49.304;8.428;2023-03-14T15:27:19;3.05;;;0.95;;
46036;SDS011;31769;49.304;8.428;2023-03-14T15:30:20;2.20;;;0.60;;
46036;SDS011;31769;49.304;8.428;2023-03-14T15:33:20;2.50;;;0.85;;
46036;SDS011;31769;49.304;8.428;2023-03-14T15:36:23;2.80;;;0.73;;
46036;SDS011;31769;49.304;8.428;2023-03-14T15:39:26;2.92;;;0.65;;
46036;SDS011;31769;49.304;8.428;2023-03-14T15:42:26;2.50;;;0.50;;
46036;SDS011;31769;49.304;8.428;2023-03-14T15:45:27;2.00;;;0.35;;
46036;SDS011;31769;49.304;8.428;2023-03-14T15:48:28;4.38;;;0.50;;
46036;SDS011;31769;49.304;8.428;2023-03-14T15:51:28;2.47;;;1.50;;
46036;SDS011;31769;49.304;8.428;2023-03-14T15:54:29;2.45;;;0.35;;
46036;SDS011;31769;49.304;8.428;2023-03-14T15:57:29;1.42;;;0.35;;
46036;SDS011;31769;49.304;8.428;2023-03-14T16:00:30;2.50;;;0.40;;
46036;SDS011;31769;49.304;8.428;2023-03-14T16:03:32;1.73;;;0.30;;
46036;SDS011;31769;49.304;8.428;2023-03-14T16:06:32;3.35;;;0.38;;
46036;SDS011;31769;49.304;8.428;2023-03-14T16:09:35;3.08;;;0.52;;
46036;SDS011;31769;49.304;8.428;2023-03-14T16:12:36;3.42;;;0.98;;
46036;SDS011;31769;49.304;8.428;2023-03-14T16:15:36;4.93;;;0.68;;
46036;SDS011;31769;49.304;8.428;2023-03-14T16:18:38;3.10;;;0.70;;
46036;SDS011;31769;49.304;8.428;2023-03-14T16:21:39;4.20;;;1.25;;
46036;SDS011;31769;49.304;8.428;2023-03-14T16:24:39;3.47;;;0.60;;
46036;SDS011;31769;49.304;8.428;2023-03-14T16:27:40;3.67;;;0.85;;
46036;SDS011;31769;49.304;8.428;2023-03-14T16:30:44;3.70;;;1.00;;
46036;SDS011;31769;49.304;8.428;2023-03-14T16:33:46;4.40;;;1.10;;
46036;SDS011;31769;49.304;8.428;2023-03-14T16:36:47;4.93;;;1.05;;
46036;SDS011;31769;49.304;8.428;2023-03-14T16:39:51;2.92;;;0.90;;
46036;SDS011;31769;49.304;8.428;2023-03-14T16:42:52;3.67;;;1.25;;
46036;SDS011;31769;49.304;8.428;2023-03-14T16:45:53;4.10;;;1.02;;
46036;SDS011;31769;49.304;8.428;2023-03-14T16:48:56;4.78;;;1.27;;
46036;SDS011;31769;49.304;8.428;2023-03-14T16:51:56;5.35;;;1.33;;
46036;SDS011;31769;49.304;8.428;2023-03-14T16:54:57;8.55;;;1.90;;
46036;SDS011;31769;49.304;8.428;2023-03-14T16:57:58;4.85;;;1.40;;
46036;SDS011;31769;49.304;8.428;2023-03-14T17:00:58;4.60;;;1.10;;
46036;SDS011;31769;49.304;8.428;2023-03-14T17:04:08;8.30;;;1.60;;
46036;SDS011;31769;49.304;8.428;2023-03-14T17:07:09;3.92;;;1.00;;
46036;SDS011;31769;49.304;8.428;2023-03-14T17:10:10;9.73;;;1.20;;
46036;SDS011;31769;49.304;8.428;2023-03-14T17:13:11;3.60;;;0.85;;
46036;SDS011;31769;49.304;8.428;2023-03-14T17:16:12;7.40;;;1.65;;
46036;SDS011;31769;49.304;8.428;2023-03-14T17:19:13;6.78;;;1.40;;
46036;SDS011;31769;49.304;8.428;2023-03-14T17:22:13;5.22;;;0.90;;
46036;SDS011;31769;49.304;8.428;2023-03-14T17:28:15;7.40;;;1.30;;
46036;SDS011;31769;49.304;8.428;2023-03-14T17:31:17;4.30;;;1.15;;
46036;SDS011;31769;49.304;8.428;2023-03-14T17:34:18;4.72;;;1.20;;
46036;SDS011;31769;49.304;8.428;2023-03-14T17:37:19;6.53;;;1.20;;
46036;SDS011;31769;49.304;8.428;2023-03-14T17:40:19;8.20;;;1.35;;
46036;SDS011;31769;49.304;8.428;2023-03-14T17:43:20;6.45;;;1.27;;
46036;SDS011;31769;49.304;8.428;2023-03-14T17:46:21;7.40;;;1.17;;
46036;SDS011;31769;49.304;8.428;2023-03-14T17:49:22;6.78;;;1.25;;
46036;SDS011;31769;49.304;8.428;2023-03-14T17:52:22;8.35;;;1.23;;
46036;SDS011;31769;49.304;8.428;2023-03-14T17:55:23;6.53;;;1.20;;
46036;SDS011;31769;49.304;8.428;2023-03-14T17:58:24;5.68;;;1.20;;
46036;SDS011;31769;49.304;8.428;2023-03-14T18:01:26;3.38;;;1.05;;
46036;SDS011;31769;49.304;8.428;2023-03-14T18:04:26;5.47;;;1.10;;
46036;SDS011;31769;49.304;8.428;2023-03-14T18:07:27;6.18;;;1.40;;
46036;SDS011;31769;49.304;8.428;2023-03-14T18:10:28;5.80;;;1.20;;
46036;SDS011;31769;49.304;8.428;2023-03-14T18:13:28;8.38;;;1.50;;
46036;SDS011;31769;49.304;8.428;2023-03-14T18:16:29;5.78;;;1.38;;
46036;SDS011;31769;49.304;8.428;2023-03-14T18:19:31;4.10;;;1.50;;
46036;SDS011;31769;49.304;8.428;2023-03-14T18:22:31;6.10;;;1.65;;
46036;SDS011;31769;49.304;8.428;2023-03-14T18:25:33;5.40;;;1.70;;
46036;SDS011;31769;49.304;8.428;2023-03-14T18:28:34;5.35;;;1.80;;
46036;SDS011;31769;49.304;8.428;2023-03-14T18:31:34;6.43;;;1.45;;
46036;SDS011;31769;49.304;8.428;2023-03-14T18:34:35;3.20;;;1.10;;
46036;SDS011;31769;49.304;8.428;2023-03-14T18:37:36;5.78;;;1.15;;
46036;SDS011;31769;49.304;8.428;2023-03-14T18:40:37;5.13;;;1.17;;
46036;SDS011;31769;49.304;8.428;2023-03-14T18:43:38;5.38;;;1.50;;
46036;SDS011;31769;49.304;8.428;2023-03-14T18:46:39;4.53;;;1.35;;
46036;SDS011;31769;49.304;8.428;2023-03-14T18:49:41;8.27;;;1.80;;
46036;SDS011;31769;49.304;8.428;2023-03-14T18:52:42;5.25;;;1.30;;
46036;SDS011;31769;49.304;8.428;2023-03-14T18:55:42;13.60;;;1.92;;
46036;SDS011;31769;49.304;8.428;2023-03-14T18:58:43;11.43;;;2.33;;
46036;SDS011;31769;49.304;8.428;2023-03-14T19:01:44;4.38;;;1.50;;
46036;SDS011;31769;49.304;8.428;2023-03-14T19:04:45;7.97;;;1.67;;
46036;SDS011;31769;49.304;8.428;2023-03-14T19:07:46;2.72;;;0.80;;
46036;SDS011;31769;49.304;8.428;2023-03-14T19:10:46;1.50;;;0.35;;
46036;SDS011;31769;49.304;8.428;2023-03-14T19:13:47;5.25;;;0.93;;
46036;SDS011;31769;49.304;8.428;2023-03-14T19:16:48;1.95;;;0.70;;
46036;SDS011;31769;49.304;8.428;2023-03-14T19:19:49;5.97;;;0.85;;
46036;SDS011;31769;49.304;8.428;2023-03-14T19:22:51;5.18;;;0.95;;
46036;SDS011;31769;49.304;8.428;2023-03-14T19:25:57;0.93;;;0.60;;
46036;SDS011;31769;49.304;8.428;2023-03-14T19:28:57;8.38;;;1.20;;
46036;SDS011;31769;49.304;8.428;2023-03-14T19:31:58;6.20;;;1.20;;
46036;SDS011;31769;49.304;8.428;2023-03-14T19:34:59;2.55;;;0.90;;
46036;SDS011;31769;49.304;8.428;2023-03-14T19:37:59;4.63;;;1.63;;
46036;SDS011;31769;49.304;8.428;2023-03-14T19:41:00;3.70;;;1.63;;
46036;SDS011;31769;49.304;8.428;2023-03-14T19:44:01;4.82;;;1.88;;
46036;SDS011;31769;49.304;8.428;2023-03-14T19:47:01;4.18;;;2.13;;
46036;SDS011;31769;49.304;8.428;2023-03-14T19:50:04;5.63;;;2.20;;
46036;SDS011;31769;49.304;8.428;2023-03-14T19:53:05;4.75;;;1.92;;
46036;SDS011;31769;49.304;8.428;2023-03-14T19:56:07;4.30;;;1.60;;
46036;SDS011;31769;49.304;8.428;2023-03-14T19:59:09;9.27;;;2.00;;
46036;SDS011;31769;49.304;8.428;2023-03-14T20:02:13;7.25;;;2.58;;
46036;SDS011;31769;49.304;8.428;2023-03-14T20:05:14;6.25;;;2.67;;
46036;SDS011;31769;49.304;8.428;2023-03-14T20:08:15;5.57;;;2.00;;
46036;SDS011;31769;49.304;8.428;2023-03-14T20:11:16;3.03;;;1.98;;
46036;SDS011;31769;49.304;8.428;2023-03-14T20:14:17;4.85;;;1.73;;
46036;SDS011;31769;49.304;8.428;2023-03-14T20:17:18;5.10;;;1.92;;
46036;SDS011;31769;49.304;8.428;2023-03-14T20:20:18;2.67;;;2.40;;
46036;SDS011;31769;49.304;8.428;2023-03-14T20:23:20;8.35;;;2.53;;
46036;SDS011;31769;49.304;8.428;2023-03-14T20:26:20;5.20;;;2.53;;
46036;SDS011;31769;49.304;8.428;2023-03-14T20:29:21;7.70;;;3.20;;
46036;SDS011;31769;49.304;8.428;2023-03-14T20:32:22;6.82;;;3.00;;
46036;SDS011;31769;49.304;8.428;2023-03-14T20:35:23;11.65;;;3.42;;
46036;SDS011;31769;49.304;8.428;2023-03-14T20:38:24;10.68;;;3.67;;
46036;SDS011;31769;49.304;8.428;2023-03-14T20:41:26;11.95;;;3.83;;
46036;SDS011;31769;49.304;8.428;2023-03-14T20:44:26;10.93;;;3.80;;
46036;SDS011;31769;49.304;8.428;2023-03-14T20:47:27;10.60;;;3.63;;
46036;SDS011;31769;49.304;8.428;2023-03-14T20:50:28;8.73;;;3.05;;
46036;SDS011;31769;49.304;8.428;2023-03-14T20:53:29;12.07;;;3.53;;
46036;SDS011;31769;49.304;8.428;2023-03-14T20:56:29;11.18;;;3.75;;
46036;SDS011;31769;49.304;8.428;2023-03-14T20:59:30;9.80;;;3.80;;
46036;SDS011;31769;49.304;8.428;2023-03-14T21:02:31;7.25;;;3.00;;
46036;SDS011;31769;49.304;8.428;2023-03-14T21:05:33;11.57;;;3.63;;
46036;SDS011;31769;49.304;8.428;2023-03-14T21:08:34;9.27;;;3.78;;
46036;SDS011;31769;49.304;8.428;2023-03-14T21:11:35;14.73;;;4.55;;
46036;SDS011;31769;49.304;8.428;2023-03-14T21:14:36;9.52;;;4.40;;
46036;SDS011;31769;49.304;8.428;2023-03-14T21:17:37;9.88;;;3.95;;
46036;SDS011;31769;49.304;8.428;2023-03-14T21:20:38;10.80;;;3.47;;
46036;SDS011;31769;49.304;8.428;2023-03-14T21:23:39;11.40;;;4.43;;
46036;SDS011;31769;49.304;8.428;2023-03-14T21:26:40;8.07;;;4.43;;
46036;SDS011;31769;49.304;8.428;2023-03-14T21:29:41;13.48;;;4.68;;
46036;SDS011;31769;49.304;8.428;2023-03-14T21:32:42;13.27;;;4.55;;
46036;SDS011;31769;49.304;8.428;2023-03-14T21:35:43;10.18;;;4.05;;
46036;SDS011;31769;49.304;8.428;2023-03-14T21:38:43;10.77;;;4.22;;
46036;SDS011;31769;49.304;8.428;2023-03-14T21:41:44;9.60;;;3.20;;
46036;SDS011;31769;49.304;8.428;2023-03-14T21:44:45;7.32;;;3.08;;
46036;SDS011;31769;49.304;8.428;2023-03-14T21:47:47;8.13;;;3.45;;
46036;SDS011;31769;49.304;8.428;2023-03-14T21:50:48;6.53;;;3.15;;
46036;SDS011;31769;49.304;8.428;2023-03-14T21:53:48;9.23;;;3.33;;
46036;SDS011;31769;49.304;8.428;2023-03-14T21:56:49;8.80;;;3.22;;
46036;SDS011;31769;49.304;8.428;2023-03-14T21:59:49;9.15;;;2.80;;
46036;SDS011;31769;49.304;8.428;2023-03-14T22:02:51;9.45;;;3.72;;
46036;SDS011;31769;49.304;8.428;2023-03-14T22:05:53;8.80;;;3.80;;
46036;SDS011;31769;49.304;8.428;2023-03-14T22:08:54;5.70;;;3.05;;
46036;SDS011;31769;49.304;8.428;2023-03-14T22:11:54;9.30;;;3.45;;
46036;SDS011;31769;49.304;8.428;2023-03-14T22:14:55;5.90;;;2.83;;
46036;SDS011;31769;49.304;8.428;2023-03-14T22:17:56;8.30;;;2.78;;
46036;SDS011;31769;49.304;8.428;2023-03-14T22:20:56;5.45;;;2.50;;
46036;SDS011;31769;49.304;8.428;2023-03-14T22:23:57;7.15;;;2.63;;
46036;SDS011;31769;49.304;8.428;2023-03-14T22:29:59;7.22;;;2.97;;
46036;SDS011;31769;49.304;8.428;2023-03-14T22:33:00;7.72;;;3.35;;
46036;SDS011;31769;49.304;8.428;2023-03-14T22:36:01;7.55;;;3.10;;